TimeSAST,TemperatureF,Dew PointF,Humidity,Sea Level PressureIn,VisibilityMPH,Wind Direction,Wind SpeedMPH,Gust SpeedMPH,PrecipitationIn,Events,Conditions,WindDirDegrees,DateUTC
12:00 AM,59.0,39.2,48,29.77,-9999.0,South,3.5,-,N/A,,Clear,190,2013-08-12 22:00:00
1:00 AM,59.0,41.0,51,29.77,-9999.0,Variable,4.6,-,N/A,,Clear,0,2013-08-12 23:00:00
2:00 AM,58,40,40,29.75,44,,2.3,,,,,,2013-08-13 00:00:00
2:00 AM,59.0,41.0,51,29.74,-9999.0,Variable,2.3,-,N/A,,Clear,0,2013-08-13 00:00:00
3:00 AM,57.2,41.0,55,29.74,-9999.0,WSW,9.2,-,N/A,,Clear,250,2013-08-13 01:00:00
4:00 AM,60.8,41.0,48,29.71,-9999.0,NW,11.5,23.0,N/A,,Clear,320,2013-08-13 02:00:00
5:00 AM,62,41,34,29.71,12,NW,24.2,,,,Mostly Cloudy,310,2013-08-13 03:00:00
5:00 AM,62.6,41.0,45,29.68,-9999.0,NW,24.2,-,N/A,,Clear,310,2013-08-13 03:00:00
6:00 AM,57.2,44.6,63,29.71,6.2,WNW,5.8,-,N/A,,Partly Cloudy,300,2013-08-13 04:00:00
7:00 AM,55.4,44.6,67,29.71,6.2,WNW,5.8,-,N/A,Rain,Light Rain,290,2013-08-13 05:00:00
8:00 AM,55.4,46.4,72,29.74,6.2,WNW,4.6,-,N/A,,Scattered Clouds,300,2013-08-13 06:00:00
9:00 AM,55.4,46.4,72,29.74,6.2,South,4.6,-,N/A,,Scattered Clouds,180,2013-08-13 07:00:00
10:00 AM,57.2,48.2,72,29.74,6.2,SSW,3.5,-,N/A,,Mostly Cloudy,200,2013-08-13 08:00:00
11:00 AM,57,49,68,29.74,12,South,11.5,,,,Mostly Cloudy,180,2013-08-13 09:00:00
11:00 AM,57.2,50.0,77,29.71,6.2,South,11.5,-,N/A,,Mostly Cloudy,180,2013-08-13 09:00:00
12:00 PM,57.2,50.0,77,29.71,6.2,South,8.1,-,N/A,Rain,Light Rain,190,2013-08-13 10:00:00
1:00 PM,60.8,51.8,72,29.68,6.2,South,5.8,-,N/A,,Mostly Cloudy,170,2013-08-13 11:00:00
2:00 PM,57,54,84,29.72,12,West,10.4,,,,Mostly Cloudy,260,2013-08-13 12:00:00
2:00 PM,57.2,53.6,88,29.71,6.2,West,9.2,-,N/A,,Mostly Cloudy,260,2013-08-13 12:00:00
3:00 PM,55.4,53.6,94,29.71,6.2,West,9.2,-,N/A,,Mostly Cloudy,270,2013-08-13 13:00:00
4:00 PM,55.4,50.0,82,29.71,6.2,West,15.0,-,N/A,,Mostly Cloudy,260,2013-08-13 14:00:00
5:00 PM,54,48,73,29.76,12,West,11.5,,,,Partly Cloudy,280,2013-08-13 15:00:00
5:00 PM,55.4,48.2,77,29.74,6.2,West,11.5,-,N/A,,Mostly Cloudy,270,2013-08-13 15:00:00
6:00 PM,53.6,48.2,82,29.77,6.2,WNW,6.9,-,N/A,,Scattered Clouds,290,2013-08-13 16:00:00
7:00 PM,50.0,46.4,87,29.80,6.2,WNW,6.9,-,N/A,,Scattered Clouds,300,2013-08-13 17:00:00
8:00 PM,50.0,44.6,82,29.80,6.2,WNW,3.5,-,N/A,,Scattered Clouds,300,2013-08-13 18:00:00
9:00 PM,48.2,41.0,76,29.80,-9999.0,WNW,8.1,-,N/A,,Clear,300,2013-08-13 19:00:00
10:00 PM,48.2,39.2,71,29.80,-9999.0,WNW,8.1,-,N/A,,Clear,300,2013-08-13 20:00:00
11:00 PM,48.2,37.4,66,29.83,-9999.0,WNW,10.4,-,N/A,,Clear,290,2013-08-13 21:00:00